Alden, MN

8:15 PM CDT on July 07, 2015 (GMT -0500)
15797 600th Ave (Baroda) | | Change Station
CLOSE
Current Station
Personal Weather Station
Location: Wells, MN
Elevation: 1230 ft
Nearby Weather Stations

Elev 1230 ft 43.71 °N, 93.67 °W | Updated 6 minutes ago

Mostly Cloudy
Mostly Cloudy
62.0 °F
Feels Like 62.0 °F
N
2.0
Wind Variable Wind from ENE
Gusts 4.0 mph

Today
High -- | Low -- °F
--% Chance of Precip.
Yesterday
High -- | Low -- °F
Precip. -- in
5:40 AM 8:57 PM
Waning Gibbous, 59% visible
Pressure 30.11 in
Visibility 10.0 miles
Clouds Scattered Clouds 4200 ft
Dew Point 52 °F
Humidity 69%
Rainfall 0.00 in
Snow Depth Not available.
UV 0 out of 12
Pollen 4.20 out of 12
Air Quality Not available.
Flu Activity Not available.
METAR KAEL 080052Z AUTO 05006KT 10SM SCT042 18/10 A3011 RMK AO2

More Conditions Fewer Conditions

Pressure 30.11 in
Visibility 10.0 miles
Clouds Scattered Clouds 4200 ft
Dew Point 52 °F
Humidity 69%
Rainfall 0.00 in
Snow Depth Not available.
UV 0 out of 12
Pollen 4.20 out of 12
Air Quality Not available.
Flu Activity Not available.
METAR KAEL 080052Z AUTO 05006KT 10SM SCT042 18/10 A3011 RMK AO2

More Conditions Fewer Conditions

10-Day Weather Forecast

×

Almanac

Astronomy

Jul. 07, 2015 Rise Set
Actual Time
Civil Twilight
Nautical Twilight
Astronomical Twilight
Moon
Length of Visible Light
Length of Day
Tomorrow will be .
, % of the Moon is Illuminated

Today's Extremes

State Highs State Lows

Community

WunderPhotos

Upload Photos

1,835,987 photos uploaded!

WunderBlogs® & News

Nearby

Air Quality

  Air Quality AQ Index Pollutant
Not available.

Snow Depth

Station Depth Elevation

Earthquake Activity

City Distance Mag. Time & Date
Minimum magnitude displayed is 2.5.

Coastal Water Temperatures

Place Temperature

Stations

Nearby Weather Stations

Station Location Temp. Windchill Dew Point Humidity Wind Precip. Elev Updated Type